Time;durP1;ratioP1;P1;durP2;ratioP2;P2;SDS_P1;SDS_P2;PMS_P1;PMS_P2;Temp;Humidity;BMP_temperature;BMP_pressure;BME280_temperature;BME280_humidity;BME280_pressure;Samples;Min_cycle;Max_cycle;Signal;HPM_P1;HPM_P2
2021/12/07 00:01:57;;;;;;;91.47;43.13;;;1.80;99.90;;;;;;5023319;28;20048;-79
2021/12/07 00:04:23;;;;;;;90.38;42.15;;;1.80;99.90;;;;;;5026545;28;20021;-79
2021/12/07 00:06:49;;;;;;;91.82;42.42;;;1.80;99.90;;;;;;5026966;28;20536;-79
2021/12/07 00:09:18;;;;;;;89.38;40.92;;;1.80;99.90;;;;;;5034426;28;20093;-75
2021/12/07 00:11:45;;;;;;;87.45;41.58;;;1.80;99.90;;;;;;5033609;28;20049;-80
2021/12/07 00:14:13;;;;;;;89.80;41.10;;;1.80;99.90;;;;;;5033810;28;20040;-76
2021/12/07 00:16:41;;;;;;;92.53;41.72;;;1.70;99.90;;;;;;5034529;28;20034;-76
2021/12/07 00:19:06;;;;;;;84.85;40.88;;;1.70;99.90;;;;;;5021512;28;20022;-77
2021/12/07 00:21:32;;;;;;;81.35;38.75;;;1.80;99.90;;;;;;5017155;28;20400;-77
2021/12/07 00:23:58;;;;;;;85.03;40.92;;;1.80;99.90;;;;;;5017099;28;20026;-77
2021/12/07 00:26:24;;;;;;;88.40;39.90;;;1.80;99.90;;;;;;5023891;28;20101;-74
2021/12/07 00:28:50;;;;;;;93.72;41.85;;;1.80;99.90;;;;;;5037580;28;20089;-75
2021/12/07 00:32:14;;;;;;;89.05;41.90;;;1.70;99.90;;;;;;5029703;28;20018;-78
2021/12/07 00:36:38;;;;;;;88.18;40.65;;;1.80;99.90;;;;;;5020379;28;20471;-77
2021/12/07 00:39:06;;;;;;;92.25;40.95;;;1.80;99.90;;;;;;5022721;28;20022;-76
2021/12/07 00:41:33;;;;;;;92.32;40.30;;;1.80;99.90;;;;;;5028693;28;20033;-77
2021/12/07 00:43:59;;;;;;;90.65;40.78;;;1.80;99.90;;;;;;5028043;28;20599;-78
2021/12/07 00:46:26;;;;;;;96.43;41.95;;;1.80;99.90;;;;;;5031249;28;20046;-77
2021/12/07 00:48:52;;;;;;;94.47;41.53;;;1.80;99.90;;;;;;5029690;28;20097;-77
2021/12/07 00:51:17;;;;;;;87.53;41.85;;;1.70;99.90;;;;;;5029554;28;20034;-77
2021/12/07 00:53:43;;;;;;;94.93;42.45;;;1.70;99.90;;;;;;5028067;28;20026;-77
2021/12/07 00:56:08;;;;;;;89.55;41.78;;;1.80;99.90;;;;;;5016634;28;20022;-77
2021/12/07 00:58:34;;;;;;;94.28;42.25;;;1.80;99.90;;;;;;5018208;28;20030;-79
2021/12/07 01:01:05;;;;;;;89.57;40.88;;;1.80;99.90;;;;;;5017570;28;20110;-78
2021/12/07 01:03:30;;;;;;;96.50;41.97;;;1.70;99.90;;;;;;5017095;28;20026;-79
2021/12/07 01:06:16;;;;;;;94.45;43.17;;;1.70;99.90;;;;;;5018015;28;20545;-79
2021/12/07 01:25:17;;;;;;;97.47;44.75;;;1.70;99.90;;;;;;5026145;28;20045;-77
2021/12/07 01:27:45;;;;;;;92.47;43.20;;;1.70;99.90;;;;;;5035148;28;20026;-76
2021/12/07 01:30:21;;;;;;;94.43;42.88;;;1.70;99.90;;;;;;5035729;28;20029;-75
2021/12/07 01:40:34;;;;;;;96.15;43.88;;;1.60;99.90;;;;;;5033254;28;20025;-77
2021/12/07 01:51:41;;;;;;;102.10;46.00;;;1.60;99.90;;;;;;5040839;28;20029;-75
2021/12/07 01:59:36;;;;;;;101.68;45.47;;;1.60;99.90;;;;;;5040888;28;20094;-73
2021/12/07 02:02:11;;;;;;;94.32;44.17;;;1.60;99.90;;;;;;5038364;28;20034;-77
2021/12/07 02:04:37;;;;;;;105.50;45.95;;;1.60;99.90;;;;;;5035773;28;20026;-78
2021/12/07 02:07:05;;;;;;;101.95;44.78;;;1.50;99.90;;;;;;5028386;28;20057;-78
2021/12/07 02:09:34;;;;;;;103.07;46.20;;;1.60;99.90;;;;;;5026015;28;20094;-79
2021/12/07 02:12:01;;;;;;;108.35;46.70;;;1.60;99.90;;;;;;5032055;28;20014;-77
2021/12/07 02:14:27;;;;;;;98.47;44.42;;;1.60;99.90;;;;;;5035804;28;20025;-79
2021/12/07 02:16:57;;;;;;;106.35;46.47;;;1.60;99.90;;;;;;5032180;28;20045;-77
2021/12/07 02:19:24;;;;;;;104.10;45.55;;;1.50;99.90;;;;;;5040434;28;20093;-74
2021/12/07 02:21:51;;;;;;;97.20;43.75;;;1.50;99.90;;;;;;5040488;28;20082;-74
2021/12/07 02:24:17;;;;;;;89.50;42.67;;;1.60;99.90;;;;;;5040528;28;20014;-74
2021/12/07 02:26:43;;;;;;;102.32;44.75;;;1.60;99.90;;;;;;5040102;28;20029;-75
2021/12/07 02:29:08;;;;;;;101.05;44.38;;;1.60;99.90;;;;;;5040209;28;20357;-75
2021/12/07 02:31:35;;;;;;;97.72;44.47;;;1.60;99.90;;;;;;5040161;28;20037;-73
2021/12/07 02:34:02;;;;;;;103.80;46.42;;;1.60;99.90;;;;;;5039367;28;20028;-74
2021/12/07 02:36:28;;;;;;;97.07;43.10;;;1.60;99.90;;;;;;5039012;28;20014;-74
2021/12/07 02:38:55;;;;;;;95.95;44.40;;;1.60;99.90;;;;;;5039902;28;20026;-75
2021/12/07 02:41:20;;;;;;;104.22;46.00;;;1.60;99.90;;;;;;5039837;28;20053;-75
2021/12/07 02:43:47;;;;;;;99.28;45.83;;;1.50;99.90;;;;;;5039058;28;20022;-76
2021/12/07 02:46:13;;;;;;;105.45;44.85;;;1.50;99.90;;;;;;5037878;28;20026;-74
2021/12/07 02:48:39;;;;;;;98.97;44.50;;;1.50;99.90;;;;;;5041428;28;20025;-77
2021/12/07 02:51:05;;;;;;;105.95;45.13;;;1.50;99.90;;;;;;5032464;28;20056;-77
2021/12/07 02:53:32;;;;;;;101.35;46.08;;;1.50;99.90;;;;;;5021708;28;20081;-77
2021/12/07 02:56:00;;;;;;;98.78;45.25;;;1.50;99.90;;;;;;5027187;28;20034;-79
2021/12/07 02:58:26;;;;;;;99.88;43.30;;;1.50;99.90;;;;;;5023226;28;20060;-78
2021/12/07 03:01:01;;;;;;;107.78;46.35;;;1.50;99.90;;;;;;5023166;28;20124;-75
2021/12/07 03:03:30;;;;;;;99.18;43.80;;;1.50;99.90;;;;;;5020686;28;20026;-77
2021/12/07 03:27:31;;;;;;;79.90;36.17;;;1.60;99.90;;;;;;5014491;28;20065;-77
2021/12/07 03:29:57;;;;;;;95.47;44.10;;;1.60;99.90;;;;;;5016672;28;20065;-77
2021/12/07 03:32:22;;;;;;;101.13;46.78;;;1.60;99.90;;;;;;5019735;28;20018;-76
2021/12/07 03:34:48;;;;;;;102.28;47.35;;;1.70;99.90;;;;;;5015847;28;20026;-77
2021/12/07 03:37:13;;;;;;;112.75;48.20;;;1.70;99.90;;;;;;5015409;28;20412;-76
2021/12/07 03:39:39;;;;;;;108.38;49.30;;;1.70;99.90;;;;;;5016915;28;20026;-77
2021/12/07 03:42:05;;;;;;;111.35;49.58;;;1.60;99.90;;;;;;5017649;28;20029;-78
2021/12/07 03:44:31;;;;;;;108.05;46.55;;;1.60;99.90;;;;;;5017655;28;20041;-78
2021/12/07 03:46:56;;;;;;;108.05;47.78;;;1.70;99.90;;;;;;5015476;28;20033;-78
2021/12/07 03:49:22;;;;;;;106.78;49.08;;;1.70;99.90;;;;;;5016093;28;20022;-77
2021/12/07 03:51:48;;;;;;;112.50;49.30;;;1.70;99.90;;;;;;5015127;28;20030;-78
2021/12/07 03:54:13;;;;;;;107.10;49.90;;;1.80;99.90;;;;;;5015246;28;20021;-78
2021/12/07 03:56:39;;;;;;;104.80;48.28;;;1.80;99.90;;;;;;5015433;28;20025;-78
2021/12/07 03:59:05;;;;;;;110.63;49.03;;;1.80;99.90;;;;;;5022741;28;20036;-78
2021/12/07 04:01:31;;;;;;;107.75;47.75;;;1.80;99.90;;;;;;5025420;28;20096;-79
2021/12/07 04:03:57;;;;;;;104.45;48.42;;;2.00;99.90;;;;;;5030467;28;20034;-77
2021/12/07 04:06:23;;;;;;;106.93;48.47;;;1.90;99.90;;;;;;5025832;28;20372;-78
2021/12/07 04:08:49;;;;;;;103.65;48.00;;;1.90;99.90;;;;;;5025307;28;20114;-78
2021/12/07 04:11:15;;;;;;;105.10;48.08;;;2.00;99.90;;;;;;5030922;28;20033;-78
2021/12/07 04:13:44;;;;;;;106.45;46.85;;;1.90;99.90;;;;;;5024844;28;20030;-78
2021/12/07 04:16:11;;;;;;;107.40;48.42;;;1.90;99.90;;;;;;5016334;28;20046;-78
2021/12/07 04:18:37;;;;;;;100.82;47.00;;;1.90;99.90;;;;;;5020882;28;20060;-77
2021/12/07 04:21:03;;;;;;;103.35;47.25;;;2.00;99.90;;;;;;5016922;28;20038;-75
2021/12/07 04:23:31;;;;;;;107.50;46.85;;;1.90;99.90;;;;;;5014188;28;20392;-75
2021/12/07 04:25:57;;;;;;;110.68;49.97;;;1.90;99.90;;;;;;5014499;28;20476;-76
2021/12/07 04:28:23;;;;;;;107.78;47.22;;;1.80;99.90;;;;;;5014312;28;20029;-76
2021/12/07 04:30:49;;;;;;;107.43;49.03;;;1.90;99.90;;;;;;5014975;28;20072;-76
2021/12/07 04:33:15;;;;;;;108.40;48.80;;;1.80;99.90;;;;;;5017046;28;20022;-78
2021/12/07 04:35:44;;;;;;;104.03;46.97;;;1.80;99.90;;;;;;5014557;28;20030;-75
2021/12/07 04:38:10;;;;;;;100.55;46.65;;;1.80;99.90;;;;;;5015883;28;20033;-78
2021/12/07 04:40:35;;;;;;;112.00;49.10;;;1.80;99.90;;;;;;5014867;28;20075;-76
2021/12/07 04:43:02;;;;;;;110.47;48.65;;;1.80;99.90;;;;;;5013871;28;20022;-75
2021/12/07 04:48:51;;;;;;;108.38;49.08;;;1.80;99.90;;;;;;5014507;28;20041;-76
2021/12/07 04:59:11;;;;;;;111.13;49.13;;;2.00;99.90;;;;;;5013135;28;20165;-75
2021/12/07 05:01:37;;;;;;;103.18;45.70;;;2.00;99.90;;;;;;5013512;28;20037;-76
2021/12/07 05:04:10;;;;;;;105.28;47.50;;;2.00;99.90;;;;;;5020414;28;20030;-76
2021/12/07 05:06:41;;;;;;;104.20;47.45;;;2.00;99.90;;;;;;5017409;28;20030;-76
2021/12/07 05:09:28;;;;;;;103.05;47.50;;;1.90;99.90;;;;;;5014568;28;20030;-75
2021/12/07 05:12:18;;;;;;;104.80;47.53;;;2.00;99.90;;;;;;5017632;28;20026;-75
2021/12/07 05:14:44;;;;;;;98.57;46.63;;;2.00;99.90;;;;;;5016712;28;20030;-76
2021/12/07 05:39:04;;;;;;;75.57;34.27;;;2.00;99.90;;;;;;5017504;28;20036;-76
2021/12/07 05:41:29;;;;;;;100.88;46.67;;;2.00;99.90;;;;;;5016130;28;20638;-75
2021/12/07 05:43:55;;;;;;;100.05;46.38;;;2.00;99.90;;;;;;5016006;28;20029;-76
2021/12/07 05:46:21;;;;;;;98.35;45.30;;;2.00;99.90;;;;;;5016762;28;20051;-77
2021/12/07 05:48:47;;;;;;;102.55;45.70;;;2.00;99.90;;;;;;5016888;28;20057;-75
2021/12/07 05:51:13;;;;;;;103.60;48.17;;;2.00;99.90;;;;;;5018611;28;20029;-75
2021/12/07 05:53:38;;;;;;;102.82;46.40;;;2.10;99.90;;;;;;5017702;28;20029;-75
2021/12/07 05:56:04;;;;;;;99.68;46.35;;;2.00;99.90;;;;;;5017740;28;20072;-76
2021/12/07 05:58:30;;;;;;;104.47;46.88;;;2.10;99.90;;;;;;5016605;28;20088;-76
2021/12/07 06:00:57;;;;;;;102.72;46.53;;;2.10;99.90;;;;;;5017321;28;20072;-76
2021/12/07 06:03:25;;;;;;;102.55;46.00;;;2.10;99.90;;;;;;5016756;28;20479;-75
2021/12/07 06:05:51;;;;;;;103.38;46.67;;;2.10;99.90;;;;;;5017445;28;20104;-75
2021/12/07 06:08:16;;;;;;;104.35;46.63;;;2.10;99.90;;;;;;5018610;28;20499;-77
2021/12/07 06:10:42;;;;;;;100.95;47.70;;;2.10;99.90;;;;;;5019757;28;20105;-78
2021/12/07 06:13:07;;;;;;;98.57;44.35;;;2.10;99.90;;;;;;5017287;28;20029;-75
2021/12/07 06:15:36;;;;;;;102.97;46.13;;;2.10;99.90;;;;;;5018790;28;20026;-75
2021/12/07 06:18:02;;;;;;;99.18;45.75;;;2.10;99.90;;;;;;5017236;28;20446;-76
2021/12/07 06:20:28;;;;;;;102.70;47.85;;;2.10;99.90;;;;;;5018640;28;20049;-75
2021/12/07 06:22:54;;;;;;;99.43;46.63;;;2.10;99.90;;;;;;5019098;28;20372;-75
2021/12/07 06:25:20;;;;;;;96.82;45.58;;;2.10;99.90;;;;;;5023359;28;20032;-77
2021/12/07 06:27:46;;;;;;;101.88;45.97;;;2.10;99.90;;;;;;5023356;28;20022;-76
2021/12/07 06:30:13;;;;;;;98.10;45.05;;;2.10;99.90;;;;;;5026554;28;20460;-76
2021/12/07 06:32:39;;;;;;;97.03;44.55;;;2.20;99.90;;;;;;5026901;28;20018;-76
2021/12/07 06:35:07;;;;;;;99.50;45.10;;;2.20;99.90;;;;;;5027101;28;20022;-77
2021/12/07 06:37:33;;;;;;;94.45;45.08;;;2.20;99.90;;;;;;5025832;28;20014;-76
2021/12/07 06:39:59;;;;;;;94.50;44.20;;;2.20;99.90;;;;;;5025739;28;20102;-77
2021/12/07 06:42:25;;;;;;;91.00;43.85;;;2.20;99.90;;;;;;5028118;28;20033;-78
2021/12/07 06:44:51;;;;;;;92.82;44.30;;;2.20;99.90;;;;;;5022652;28;20026;-77
2021/12/07 06:47:16;;;;;;;97.28;44.20;;;2.20;99.90;;;;;;5032214;28;20037;-77
2021/12/07 06:49:42;;;;;;;95.75;43.60;;;2.10;99.90;;;;;;5037496;28;20050;-77
2021/12/07 06:52:08;;;;;;;96.07;43.45;;;2.20;99.90;;;;;;5039417;28;20018;-78
2021/12/07 06:54:35;;;;;;;93.65;42.72;;;2.20;99.90;;;;;;5039500;28;20026;-76
2021/12/07 06:57:01;;;;;;;97.13;42.80;;;2.10;99.90;;;;;;5034120;28;20041;-76
2021/12/07 06:59:26;;;;;;;96.18;42.40;;;2.20;99.90;;;;;;5022732;28;20026;-76
2021/12/07 07:01:52;;;;;;;96.32;42.70;;;2.20;99.90;;;;;;5017735;28;20565;-76
2021/12/07 07:04:17;;;;;;;97.70;43.72;;;2.20;99.90;;;;;;5017694;28;20026;-77
2021/12/07 07:06:43;;;;;;;95.03;43.17;;;2.20;99.90;;;;;;5015251;28;20061;-78
2021/12/07 07:09:10;;;;;;;92.28;42.95;;;2.10;99.90;;;;;;5019016;28;20053;-75
2021/12/07 07:11:36;;;;;;;95.72;42.00;;;2.10;99.90;;;;;;5016531;28;20061;-77
2021/12/07 07:14:02;;;;;;;94.97;43.47;;;2.10;99.90;;;;;;5017377;28;20029;-76
2021/12/07 07:16:29;;;;;;;95.82;42.95;;;2.10;99.90;;;;;;5015360;28;20029;-77
2021/12/07 07:18:55;;;;;;;92.28;41.97;;;2.10;99.90;;;;;;5016754;28;20067;-76
2021/12/07 07:21:21;;;;;;;100.22;43.83;;;2.20;99.90;;;;;;5018964;28;20045;-75
2021/12/07 07:23:47;;;;;;;89.32;42.70;;;2.20;99.90;;;;;;5023472;28;20402;-76
2021/12/07 07:26:13;;;;;;;99.00;44.55;;;2.20;99.90;;;;;;5033815;28;20474;-76
2021/12/07 07:28:38;;;;;;;93.30;42.55;;;2.20;99.90;;;;;;5039697;28;20014;-76
2021/12/07 07:31:10;;;;;;;95.10;43.08;;;2.30;99.90;;;;;;5035551;28;20378;-76
2021/12/07 07:33:36;;;;;;;85.57;40.67;;;2.30;99.90;;;;;;5035584;28;20033;-76
2021/12/07 07:36:02;;;;;;;87.45;39.95;;;2.30;99.90;;;;;;5034941;28;20018;-76
2021/12/07 07:38:28;;;;;;;92.88;43.72;;;2.30;99.90;;;;;;5035341;28;20030;-76
2021/12/07 07:40:54;;;;;;;91.20;41.88;;;2.30;99.90;;;;;;5034633;28;20014;-77
2021/12/07 07:43:20;;;;;;;92.20;41.28;;;2.30;99.90;;;;;;5035456;28;20025;-77
2021/12/07 07:45:49;;;;;;;91.47;41.78;;;2.30;99.90;;;;;;5035565;28;20077;-74
2021/12/07 07:48:16;;;;;;;89.60;40.92;;;2.40;99.90;;;;;;5036219;28;20006;-75
2021/12/07 07:50:43;;;;;;;88.03;40.80;;;2.30;99.90;;;;;;5022814;28;20041;-75
2021/12/07 07:53:08;;;;;;;90.53;41.45;;;2.40;99.90;;;;;;5021621;28;20026;-76
2021/12/07 07:55:37;;;;;;;93.38;41.90;;;2.40;99.90;;;;;;5016545;28;20475;-77
2021/12/07 07:58:03;;;;;;;91.07;39.53;;;2.40;99.90;;;;;;5016401;28;20051;-76
2021/12/07 08:00:29;;;;;;;91.50;41.10;;;2.40;99.90;;;;;;5017443;28;20084;-76
2021/12/07 08:02:55;;;;;;;85.63;40.05;;;2.50;99.90;;;;;;5020144;28;20026;-77
2021/12/07 08:05:23;;;;;;;88.95;40.40;;;2.60;99.90;;;;;;5015862;28;20037;-75
2021/12/07 08:07:50;;;;;;;95.70;40.47;;;2.50;99.90;;;;;;5016380;28;20086;-75
2021/12/07 08:10:21;;;;;;;84.38;40.17;;;2.50;99.90;;;;;;5013732;28;20032;-75
2021/12/07 08:12:47;;;;;;;91.25;41.05;;;2.50;99.90;;;;;;5016076;28;20101;-76
2021/12/07 08:15:14;;;;;;;89.30;40.88;;;2.50;99.90;;;;;;5018225;28;20498;-77
2021/12/07 08:17:40;;;;;;;93.25;41.97;;;2.50;99.90;;;;;;5017343;28;20025;-78
2021/12/07 08:20:07;;;;;;;91.15;40.72;;;2.40;99.90;;;;;;5019153;28;20076;-76
2021/12/07 08:22:33;;;;;;;93.13;40.90;;;2.40;99.90;;;;;;5021271;28;20116;-78
2021/12/07 08:24:58;;;;;;;94.20;41.40;;;2.40;99.90;;;;;;5021096;28;20032;-76
2021/12/07 08:27:26;;;;;;;89.43;40.88;;;2.40;99.90;;;;;;5015174;28;20053;-77
2021/12/07 08:29:51;;;;;;;94.18;43.22;;;2.30;99.90;;;;;;5015952;28;20026;-76
2021/12/07 08:32:17;;;;;;;92.40;41.92;;;2.30;99.90;;;;;;5017322;28;20438;-77
2021/12/07 08:34:43;;;;;;;85.22;39.33;;;2.20;99.90;;;;;;5019468;28;20029;-78
2021/12/07 08:37:09;;;;;;;91.53;43.17;;;2.30;99.90;;;;;;5016949;28;20026;-77
2021/12/07 08:39:35;;;;;;;94.10;41.95;;;2.40;99.90;;;;;;5016388;28;20502;-77
2021/12/07 08:42:02;;;;;;;87.80;41.42;;;2.40;99.90;;;;;;5016448;28;20545;-77
2021/12/07 08:44:28;;;;;;;91.35;41.47;;;2.30;99.90;;;;;;5014442;28;20487;-76
2021/12/07 08:46:54;;;;;;;89.53;41.45;;;2.30;99.90;;;;;;5015081;28;20038;-77
2021/12/07 08:49:21;;;;;;;115.20;46.17;;;2.30;99.90;;;;;;5014756;28;20022;-77
2021/12/07 08:51:47;;;;;;;174.40;63.28;;;2.40;99.90;;;;;;5015212;28;20014;-75
2021/12/07 08:54:28;;;;;;;102.22;44.58;;;2.40;99.90;;;;;;5015086;28;20025;-77
2021/12/07 09:02:07;;;;;;;97.07;42.67;;;2.50;99.90;;;;;;5015522;28;20096;-78
2021/12/07 09:04:34;;;;;;;93.10;42.38;;;2.60;99.90;;;;;;5016737;28;20118;-80
2021/12/07 09:07:00;;;;;;;89.70;40.92;;;2.60;99.90;;;;;;5018664;28;20041;-77
2021/12/07 09:09:27;;;;;;;95.88;42.15;;;2.60;99.90;;;;;;5016460;28;20018;-77
2021/12/07 09:11:55;;;;;;;87.78;41.25;;;2.70;99.90;;;;;;5015061;28;20050;-77
2021/12/07 09:14:22;;;;;;;92.93;41.28;;;2.70;99.90;;;;;;5014369;28;20475;-77
2021/12/07 09:16:48;;;;;;;105.28;44.05;;;2.70;99.90;;;;;;5012878;28;20624;-77
2021/12/07 09:19:15;;;;;;;96.40;44.05;;;2.70;99.90;;;;;;5014547;28;20044;-77
2021/12/07 09:21:41;;;;;;;95.60;42.17;;;2.70;99.90;;;;;;5015451;28;20029;-77
2021/12/07 09:24:07;;;;;;;101.07;42.28;;;2.70;99.90;;;;;;5014391;28;20050;-78
2021/12/07 09:26:33;;;;;;;98.20;43.55;;;2.70;99.90;;;;;;5013556;28;20026;-77
2021/12/07 09:28:59;;;;;;;95.47;41.92;;;2.70;99.90;;;;;;5015664;28;20122;-77
2021/12/07 09:31:25;;;;;;;95.38;42.10;;;2.70;99.90;;;;;;5013460;28;20061;-76
2021/12/07 09:33:52;;;;;;;102.90;46.30;;;2.70;99.90;;;;;;5014104;28;20022;-77
2021/12/07 09:36:18;;;;;;;97.13;45.35;;;2.70;99.90;;;;;;5013228;28;20022;-77
2021/12/07 09:38:43;;;;;;;95.78;42.60;;;2.70;99.90;;;;;;5014383;28;20041;-75
2021/12/07 09:41:10;;;;;;;90.78;42.00;;;2.70;99.90;;;;;;5014741;28;20025;-76
2021/12/07 09:43:37;;;;;;;99.38;44.90;;;2.80;99.90;;;;;;5013753;28;20463;-76
2021/12/07 09:46:06;;;;;;;99.55;43.30;;;2.80;99.90;;;;;;5012593;28;20064;-75
2021/12/07 09:48:32;;;;;;;100.90;42.55;;;2.90;99.90;;;;;;5013337;28;20029;-75
2021/12/07 09:50:58;;;;;;;92.68;44.83;;;2.90;99.90;;;;;;5015463;28;20083;-77
2021/12/07 09:53:24;;;;;;;92.38;43.45;;;3.00;99.90;;;;;;5013485;28;20018;-76
2021/12/07 09:55:51;;;;;;;98.93;45.72;;;3.00;99.90;;;;;;5016944;28;20037;-76
2021/12/07 09:58:18;;;;;;;96.82;43.53;;;2.90;99.90;;;;;;5017768;28;20026;-78
2021/12/07 10:00:44;;;;;;;92.80;44.42;;;2.90;99.90;;;;;;5025200;28;20041;-76
2021/12/07 10:03:11;;;;;;;93.03;44.42;;;2.90;99.90;;;;;;5037478;28;20046;-77
2021/12/07 10:05:40;;;;;;;99.53;43.53;;;2.90;99.90;;;;;;5035021;28;20032;-76
2021/12/07 10:08:07;;;;;;;95.88;44.20;;;2.80;99.90;;;;;;5028478;28;20029;-77
2021/12/07 10:10:38;;;;;;;95.72;44.85;;;2.90;99.90;;;;;;5037213;28;20040;-77
2021/12/07 10:13:06;;;;;;;99.15;43.85;;;2.90;99.90;;;;;;5038048;28;20095;-77
2021/12/07 10:15:32;;;;;;;96.68;44.20;;;3.00;99.90;;;;;;5040439;28;20032;-77
2021/12/07 10:18:01;;;;;;;100.25;44.92;;;3.00;99.90;;;;;;5039971;28;20096;-78
2021/12/07 10:20:42;;;;;;;98.25;43.28;;;2.90;99.90;;;;;;5038002;28;20371;-77
2021/12/07 10:23:14;;;;;;;93.88;43.55;;;2.90;99.90;;;;;;5039528;28;20022;-77
2021/12/07 10:25:40;;;;;;;97.53;47.63;;;2.80;99.90;;;;;;5039404;28;20033;-76
2021/12/07 10:28:23;;;;;;;94.18;44.22;;;2.80;99.90;;;;;;5040417;28;20025;-76
2021/12/07 10:30:50;;;;;;;101.93;44.33;;;2.90;99.90;;;;;;5042191;28;20060;-76
2021/12/07 10:33:28;;;;;;;94.43;44.58;;;2.90;99.90;;;;;;5043720;28;20037;-76
2021/12/07 10:36:13;;;;;;;96.60;45.20;;;2.90;99.90;;;;;;5043277;28;20022;-77
2021/12/07 10:38:40;;;;;;;95.13;43.08;;;3.00;99.90;;;;;;5047109;28;20026;-76
2021/12/07 10:41:08;;;;;;;96.97;44.20;;;2.90;99.90;;;;;;5046704;28;20387;-78
2021/12/07 10:43:50;;;;;;;93.85;42.65;;;3.00;99.90;;;;;;5044583;28;20537;-76
2021/12/07 10:46:32;;;;;;;98.88;44.92;;;3.10;99.90;;;;;;5044731;28;20052;-75
2021/12/07 10:49:16;;;;;;;91.20;42.88;;;3.10;99.90;;;;;;5047536;28;20026;-76
2021/12/07 10:51:56;;;;;;;91.60;42.55;;;3.10;99.90;;;;;;5046702;28;20231;-77
2021/12/07 10:54:23;;;;;;;91.60;42.42;;;3.10;99.90;;;;;;5044786;28;20036;-76
2021/12/07 10:56:50;;;;;;;90.55;42.22;;;3.10;99.90;;;;;;5044782;28;20029;-76
2021/12/07 10:59:16;;;;;;;89.50;43.40;;;3.10;99.90;;;;;;5043348;28;20031;-75
2021/12/07 11:01:45;;;;;;;93.22;43.10;;;3.10;99.90;;;;;;5053367;28;20028;-77
2021/12/07 11:04:33;;;;;;;101.30;44.45;;;3.20;99.90;;;;;;5058128;28;20022;-78
2021/12/07 11:07:24;;;;;;;97.38;44.30;;;3.20;99.90;;;;;;5057126;28;20010;-76
2021/12/07 11:10:09;;;;;;;94.65;44.35;;;3.30;99.90;;;;;;5057702;28;20059;-76
2021/12/07 11:12:51;;;;;;;92.78;41.85;;;3.40;99.90;;;;;;5058183;28;20021;-76
2021/12/07 11:15:24;;;;;;;87.60;41.00;;;3.40;99.90;;;;;;5058483;28;20014;-79
2021/12/07 11:18:00;;;;;;;104.65;45.30;;;3.40;99.90;;;;;;5059073;28;20013;-76
2021/12/07 11:20:28;;;;;;;94.93;42.92;;;3.50;99.90;;;;;;5058016;28;20033;-76
2021/12/07 11:23:04;;;;;;;96.68;43.97;;;3.40;99.90;;;;;;5058687;28;20017;-75
2021/12/07 11:31:18;;;;;;;90.93;42.03;;;3.50;99.90;;;;;;5058882;28;20033;-76
2021/12/07 11:33:44;;;;;;;92.88;43.83;;;3.40;99.90;;;;;;5057608;28;20051;-76
2021/12/07 11:36:20;;;;;;;96.72;44.97;;;3.50;99.90;;;;;;5052653;28;20060;-76
2021/12/07 11:38:46;;;;;;;98.95;44.45;;;3.40;99.90;;;;;;5045890;28;20544;-77
2021/12/07 11:41:34;;;;;;;90.43;41.63;;;3.40;99.90;;;;;;5044496;28;20033;-76
2021/12/07 11:44:05;;;;;;;89.30;42.47;;;3.50;99.90;;;;;;5040464;28;20387;-75
2021/12/07 11:46:32;;;;;;;95.32;43.53;;;3.50;99.90;;;;;;5042468;28;20119;-76
2021/12/07 11:49:12;;;;;;;95.65;42.25;;;3.50;99.90;;;;;;5036987;28;20026;-78
2021/12/07 11:51:39;;;;;;;91.40;42.55;;;3.60;99.90;;;;;;5038000;28;20378;-76
2021/12/07 11:54:06;;;;;;;93.82;42.95;;;3.60;99.90;;;;;;5052239;28;20028;-76
2021/12/07 11:56:32;;;;;;;92.30;44.03;;;3.50;99.90;;;;;;5041127;28;20152;-76
2021/12/07 11:58:58;;;;;;;92.00;42.95;;;3.50;99.90;;;;;;5035765;28;20033;-77
2021/12/07 12:01:24;;;;;;;91.63;42.30;;;3.50;99.90;;;;;;5034943;28;20063;-77
2021/12/07 12:03:49;;;;;;;90.30;42.08;;;3.40;99.90;;;;;;5034126;28;20585;-76
2021/12/07 12:06:15;;;;;;;93.95;42.90;;;3.40;99.90;;;;;;5034812;28;20033;-76
2021/12/07 12:08:41;;;;;;;94.28;41.65;;;3.50;99.90;;;;;;5035721;28;20041;-77
2021/12/07 12:11:31;;;;;;;98.30;43.38;;;3.50;99.90;;;;;;5035746;28;20017;-77
2021/12/07 12:14:27;;;;;;;93.10;41.67;;;3.50;99.90;;;;;;5036326;28;20429;-76
2021/12/07 12:17:19;;;;;;;98.28;43.58;;;3.60;99.90;;;;;;5034597;28;20036;-77
2021/12/07 12:20:11;;;;;;;98.00;44.08;;;3.60;99.90;;;;;;5006640;28;20034;-76
2021/12/07 12:22:48;;;;;;;93.75;42.60;;;3.60;99.90;;;;;;5033502;28;20029;-76
2021/12/07 12:25:17;;;;;;;91.63;42.47;;;3.60;99.90;;;;;;5033897;28;20022;-75
2021/12/07 12:27:47;;;;;;;93.05;42.80;;;3.70;99.90;;;;;;5034849;28;20087;-77
2021/12/07 12:30:18;;;;;;;91.93;42.22;;;3.70;99.90;;;;;;5035649;28;20036;-75
2021/12/07 12:32:46;;;;;;;95.85;44.42;;;3.70;99.90;;;;;;5035484;28;20018;-76
2021/12/07 12:35:13;;;;;;;97.47;45.47;;;3.70;99.90;;;;;;5032972;28;20022;-77
2021/12/07 12:37:45;;;;;;;98.75;43.55;;;3.70;99.90;;;;;;5034396;28;20021;-77
2021/12/07 12:40:22;;;;;;;95.22;43.60;;;3.80;99.90;;;;;;5032821;28;20040;-77
2021/12/07 12:42:51;;;;;;;110.45;48.25;;;3.80;99.90;;;;;;5034768;28;20033;-77
2021/12/07 12:45:22;;;;;;;99.25;43.13;;;3.80;99.90;;;;;;5035135;28;20033;-77
2021/12/07 12:48:07;;;;;;;97.20;43.25;;;3.80;99.90;;;;;;5040413;28;20454;-76
2021/12/07 12:50:43;;;;;;;86.15;41.42;;;3.80;99.90;;;;;;5035032;28;20021;-76
2021/12/07 12:53:11;;;;;;;93.93;42.20;;;3.80;99.90;;;;;;5034382;28;20025;-77
2021/12/07 12:55:43;;;;;;;86.53;40.47;;;3.90;99.90;;;;;;5033729;28;20021;-76
2021/12/07 12:58:36;;;;;;;94.65;42.08;;;3.80;99.90;;;;;;5034649;28;20084;-75
2021/12/07 13:01:20;;;;;;;91.65;43.42;;;3.80;99.90;;;;;;5036700;28;20108;-76
2021/12/07 13:04:10;;;;;;;96.30;42.47;;;3.80;99.90;;;;;;5037405;28;20092;-76
2021/12/07 13:06:44;;;;;;;97.82;43.05;;;3.80;99.90;;;;;;5037334;28;20021;-77
2021/12/07 13:09:19;;;;;;;93.55;42.72;;;3.90;99.90;;;;;;5036170;28;20075;-79
2021/12/07 13:11:54;;;;;;;91.88;40.42;;;4.00;99.90;;;;;;5035824;28;20038;-78
2021/12/07 13:14:19;;;;;;;99.80;42.03;;;4.00;99.90;;;;;;5033902;28;20446;-77
2021/12/07 13:17:11;;;;;;;94.28;42.92;;;4.10;99.90;;;;;;5034619;28;20052;-78
2021/12/07 13:20:05;;;;;;;99.20;43.03;;;4.10;99.90;;;;;;5035089;28;20486;-77
2021/12/07 13:22:39;;;;;;;88.43;41.85;;;4.10;99.90;;;;;;5034197;28;20478;-76
2021/12/07 13:25:23;;;;;;;92.73;43.50;;;4.00;99.90;;;;;;5034753;28;20029;-76
2021/12/07 13:28:11;;;;;;;88.53;41.37;;;3.90;99.90;;;;;;5032636;28;20397;-76
2021/12/07 13:30:49;;;;;;;92.93;43.40;;;4.00;99.90;;;;;;5036696;28;20284;-76
2021/12/07 13:33:31;;;;;;;101.63;44.67;;;3.90;99.90;;;;;;5043559;28;20032;-77
2021/12/07 13:35:58;;;;;;;96.45;43.85;;;3.80;99.90;;;;;;5040821;28;20021;-76
2021/12/07 13:38:28;;;;;;;95.32;43.85;;;3.80;99.90;;;;;;5039529;28;20032;-75
2021/12/07 13:41:13;;;;;;;96.60;43.92;;;3.70;99.90;;;;;;5037630;28;20033;-77
2021/12/07 13:43:41;;;;;;;101.65;43.28;;;3.70;99.90;;;;;;5038014;28;20030;-77
2021/12/07 13:46:12;;;;;;;96.95;44.90;;;3.60;99.90;;;;;;5037873;28;20045;-76
2021/12/07 13:48:39;;;;;;;94.32;43.72;;;3.70;99.90;;;;;;5038738;28;20486;-77
2021/12/07 13:51:05;;;;;;;95.25;42.42;;;3.60;99.90;;;;;;5038492;28;20117;-78
2021/12/07 13:53:31;;;;;;;92.68;42.78;;;3.70;99.90;;;;;;5037436;28;20072;-74
2021/12/07 13:55:57;;;;;;;97.45;42.55;;;3.60;99.90;;;;;;5037987;28;20025;-76
2021/12/07 13:58:23;;;;;;;98.22;42.45;;;3.60;99.90;;;;;;5038929;28;20017;-76
2021/12/07 14:00:49;;;;;;;91.75;42.13;;;3.60;99.90;;;;;;5039839;28;20041;-77
2021/12/07 14:03:15;;;;;;;92.80;42.88;;;3.50;99.90;;;;;;5039115;28;20029;-74
2021/12/07 14:05:44;;;;;;;87.80;40.95;;;3.50;99.90;;;;;;5037478;28;20052;-74
2021/12/07 14:08:14;;;;;;;101.70;43.28;;;3.50;99.90;;;;;;5037134;28;20039;-76
2021/12/07 14:10:48;;;;;;;95.32;42.80;;;3.50;99.90;;;;;;5037431;28;20362;-75
2021/12/07 14:13:15;;;;;;;92.47;42.53;;;3.50;99.90;;;;;;5038891;28;20505;-77
2021/12/07 14:15:43;;;;;;;96.65;42.80;;;3.50;99.90;;;;;;5037343;28;20834;-75
2021/12/07 14:18:13;;;;;;;87.72;41.30;;;3.50;99.90;;;;;;5034656;28;20025;-76
2021/12/07 14:20:42;;;;;;;96.43;43.13;;;3.50;99.90;;;;;;5037781;28;20382;-76
2021/12/07 14:23:20;;;;;;;103.93;45.08;;;3.50;99.90;;;;;;5038149;28;20113;-75
2021/12/07 14:25:54;;;;;;;100.18;42.13;;;3.50;99.90;;;;;;5041482;28;20083;-76
2021/12/07 14:28:47;;;;;;;94.25;43.03;;;3.60;99.90;;;;;;5037038;28;20060;-76
2021/12/07 14:31:22;;;;;;;94.50;41.28;;;3.70;99.90;;;;;;5037521;28;20483;-76